createdAt,value
2017-08-30T00:00:28.804Z,100590.23
2017-08-30T00:05:31.466Z,100584.66
2017-08-30T00:10:34.494Z,100589.25
2017-08-30T00:15:37.109Z,100583.92
2017-08-30T00:20:39.772Z,100576.83
2017-08-30T00:26:00.438Z,100575.84
2017-08-30T00:31:03.186Z,100583.58
2017-08-30T00:36:05.565Z,100576.87
2017-08-30T00:41:08.347Z,100565.92
2017-08-30T00:46:11.032Z,100568.96
2017-08-30T00:51:13.778Z,100560.72
2017-08-30T00:56:16.527Z,100566.14
2017-08-30T01:01:18.940Z,100575.52
2017-08-30T01:06:21.587Z,100575.84
2017-08-30T01:11:23.932Z,100568.67
2017-08-30T01:16:26.001Z,100564.97
2017-08-30T01:21:28.782Z,100544.66
2017-08-30T01:26:30.752Z,100545.06
2017-08-30T01:31:33.390Z,100548.39
2017-08-30T01:36:35.770Z,100564.07
2017-08-30T01:41:38.076Z,100556.16
2017-08-30T01:46:41.285Z,100557.50
2017-08-30T01:51:43.923Z,100553.08
2017-08-30T01:56:47.035Z,100534.41
2017-08-30T02:01:49.751Z,100524.83
2017-08-30T02:06:52.376Z,100518.41
2017-08-30T02:11:54.985Z,100519.97
2017-08-30T02:16:57.566Z,100528.06
2017-08-30T02:22:00.315Z,100520.70
2017-08-30T02:27:02.380Z,100512.91
2017-08-30T02:32:05.100Z,100510.34
2017-08-30T02:37:07.856Z,100507.15
2017-08-30T02:42:10.514Z,100496.61
2017-08-30T02:47:13.186Z,100475.19
2017-08-30T02:52:20.996Z,100475.84
2017-08-30T02:57:28.304Z,100461.80
2017-08-30T03:02:32.107Z,100471.05
2017-08-30T03:07:34.901Z,100482.58
2017-08-30T03:12:38.104Z,100486.24
2017-08-30T03:17:41.241Z,100479.09
2017-08-30T03:22:44.710Z,100475.76
2017-08-30T03:27:47.335Z,100478.56
2017-08-30T03:32:50.012Z,100474.98
2017-08-30T03:37:52.897Z,100467.12
2017-08-30T03:42:57.298Z,100462.64
2017-08-30T03:48:01.338Z,100458.59
2017-08-30T03:53:05.108Z,100477.37
2017-08-30T03:58:07.733Z,100469.70
2017-08-30T04:03:10.670Z,100471.63
2017-08-30T04:08:13.781Z,100475.34
2017-08-30T04:13:16.017Z,100467.81
2017-08-30T04:18:19.073Z,100459.10
2017-08-30T04:23:21.825Z,100458.20
2017-08-30T04:28:24.342Z,100452.00
2017-08-30T04:33:26.339Z,100446.11
2017-08-30T04:38:28.843Z,100456.01
2017-08-30T04:43:31.448Z,100454.83
2017-08-30T04:48:36.328Z,100455.17
2017-08-30T04:53:38.327Z,100454.03
2017-08-30T04:58:40.323Z,100462.61
2017-08-30T05:03:42.311Z,100451.50
2017-08-30T05:08:44.307Z,100448.50
2017-08-30T05:13:46.309Z,100440.33
2017-08-30T05:18:50.668Z,100444.78
2017-08-30T05:23:52.672Z,100441.48
2017-08-30T05:29:05.980Z,100426.27
2017-08-30T05:34:09.922Z,100426.77
2017-08-30T05:39:14.089Z,100428.58
2017-08-30T05:44:17.198Z,100429.50
2017-08-30T05:49:24.588Z,100429.16
2017-08-30T05:54:26.759Z,100434.92
2017-08-30T05:59:28.773Z,100428.50
2017-08-30T06:04:30.901Z,100391.66
2017-08-30T06:09:33.815Z,100432.42
2017-08-30T06:14:37.512Z,100430.09
2017-08-30T06:19:40.760Z,100415.25
2017-08-30T06:24:46.520Z,100404.86
2017-08-30T06:29:52.278Z,100395.41
2017-08-30T06:34:59.505Z,100399.01
2017-08-30T06:40:03.213Z,100399.64
2017-08-30T06:45:07.072Z,100400.56
2017-08-30T06:50:10.278Z,100398.91
2017-08-30T06:55:16.835Z,100401.31
2017-08-30T07:00:20.236Z,100402.45
2017-08-30T07:05:24.228Z,100410.92
2017-08-30T07:10:31.755Z,100409.84
2017-08-30T07:15:36.909Z,100414.11
2017-08-30T07:20:38.899Z,100412.41
2017-08-30T07:25:41.362Z,100407.41
2017-08-30T07:30:44.886Z,100402.97
2017-08-30T07:35:49.016Z,100395.48
2017-08-30T07:40:52.742Z,100398.08
2017-08-30T07:45:56.727Z,100401.38
2017-08-30T07:51:03.767Z,100400.03
2017-08-30T07:56:08.620Z,100413.31
2017-08-30T08:01:12.355Z,100410.63
2017-08-30T08:06:20.220Z,100420.12
2017-08-30T08:11:26.507Z,100420.39
2017-08-30T08:16:31.320Z,100415.89
2017-08-30T08:21:34.964Z,100422.39
2017-08-30T08:26:37.603Z,100408.69
2017-08-30T08:31:40.219Z,100407.38
2017-08-30T08:36:42.666Z,100398.36
2017-08-30T08:41:46.132Z,100400.24
2017-08-30T08:46:49.990Z,100395.95
2017-08-30T08:51:52.314Z,100392.16
2017-08-30T08:56:54.616Z,100391.16
2017-08-30T09:01:56.865Z,100392.31
2017-08-30T09:06:59.081Z,100378.80
2017-08-30T09:12:01.326Z,100368.03
2017-08-30T09:17:03.797Z,100358.92
2017-08-30T09:22:06.171Z,100355.22
2017-08-30T09:27:08.744Z,100357.69
2017-08-30T09:32:10.980Z,100358.23
2017-08-30T09:37:13.418Z,100361.39
2017-08-30T09:42:15.783Z,100361.20
2017-08-30T09:47:21.139Z,100363.27
2017-08-30T09:52:26.159Z,100359.25
2017-08-30T09:57:31.411Z,100351.42
2017-08-30T10:02:35.707Z,100362.81
2017-08-30T10:07:39.934Z,100363.69
2017-08-30T10:12:44.730Z,100362.83
2017-08-30T10:17:49.880Z,100358.23
2017-08-30T10:22:55.113Z,100354.02
2017-08-30T10:27:58.808Z,100353.09
2017-08-30T10:33:02.303Z,100357.47
2017-08-30T10:38:06.772Z,100351.33
2017-08-30T10:43:21.685Z,100352.36
2017-08-30T10:48:25.092Z,100354.52
2017-08-30T10:53:30.940Z,100343.42
2017-08-30T10:58:33.556Z,100342.66
2017-08-30T11:03:35.921Z,100333.63
2017-08-30T11:08:38.365Z,100335.87
2017-08-30T11:13:45.186Z,100331.70
2017-08-30T11:18:47.475Z,100324.27
2017-08-30T11:23:50.034Z,100318.92
2017-08-30T11:28:52.615Z,100316.52
2017-08-30T11:33:54.947Z,100310.07
2017-08-30T11:39:04.128Z,100297.25
2017-08-30T11:44:06.419Z,100282.80
2017-08-30T11:49:08.623Z,100279.67
2017-08-30T11:54:12.997Z,100273.56
2017-08-30T11:59:16.518Z,100258.88
2017-08-30T12:04:22.533Z,100252.59
2017-08-30T12:09:24.889Z,100251.41
2017-08-30T12:14:29.765Z,100237.80
2017-08-30T12:19:32.298Z,100237.27
2017-08-30T12:24:35.024Z,100209.77
2017-08-30T12:29:37.339Z,100216.81
2017-08-30T12:34:39.812Z,100204.61
2017-08-30T12:39:42.353Z,100199.34
2017-08-30T12:44:44.857Z,100193.49
2017-08-30T12:49:47.908Z,100191.86
2017-08-30T12:54:50.386Z,100185.82
2017-08-30T12:59:52.763Z,100167.19
2017-08-30T13:04:55.207Z,100163.34
2017-08-30T13:09:57.692Z,100176.72
2017-08-30T13:15:09.176Z,100185.60
2017-08-30T13:20:12.398Z,100180.63
2017-08-30T13:25:14.929Z,100162.58
2017-08-30T13:30:17.965Z,100151.66
2017-08-30T13:35:20.530Z,100160.83
2017-08-30T13:40:24.282Z,100150.47
2017-08-30T13:45:27.589Z,100161.12
2017-08-30T13:50:30.288Z,100173.55
2017-08-30T13:55:32.706Z,100179.75
2017-08-30T14:00:35.046Z,100185.59
2017-08-30T14:05:38.117Z,100188.67
2017-08-30T14:10:40.088Z,100175.40
2017-08-30T14:15:42.135Z,100175.04
2017-08-30T14:20:44.129Z,100162.30
2017-08-30T14:25:46.845Z,100150.16
2017-08-30T14:30:49.181Z,100147.61
2017-08-30T14:35:51.500Z,100151.60
2017-08-30T14:40:53.766Z,100148.14
2017-08-30T14:45:56.085Z,100147.41
2017-08-30T14:50:59.643Z,100136.45
2017-08-30T14:56:01.895Z,100127.03
2017-08-30T15:01:04.132Z,100123.11
2017-08-30T15:06:06.097Z,100113.65
2017-08-30T15:11:08.558Z,100107.77
2017-08-30T15:16:10.852Z,100110.69
2017-08-30T15:21:12.845Z,100106.77
2017-08-30T15:26:14.825Z,100105.04
2017-08-30T15:31:16.785Z,100096.86
2017-08-30T15:36:18.946Z,100090.22
2017-08-30T15:41:21.152Z,100091.56
2017-08-30T15:46:23.193Z,100094.66
2017-08-30T15:51:25.185Z,100088.20
2017-08-30T15:56:27.132Z,100080.13
2017-08-30T16:01:29.109Z,100102.21
2017-08-30T16:06:31.049Z,100085.61
2017-08-30T16:11:34.304Z,100084.58
2017-08-30T16:16:36.568Z,100094.37
2017-08-30T16:21:39.876Z,100093.84
2017-08-30T16:26:42.159Z,100088.92
2017-08-30T16:31:44.388Z,100089.05
2017-08-30T16:36:46.807Z,100080.06
2017-08-30T16:41:49.265Z,100073.78
2017-08-30T16:46:52.077Z,100080.45
2017-08-30T16:51:54.522Z,100081.05
2017-08-30T16:56:56.878Z,100075.19
2017-08-30T17:01:59.254Z,100073.87
2017-08-30T17:07:01.541Z,100063.59
2017-08-30T17:12:04.058Z,100063.84
2017-08-30T17:17:06.383Z,100066.09
2017-08-30T17:22:08.914Z,100070.78
2017-08-30T17:27:11.209Z,100065.77
2017-08-30T17:32:13.231Z,100071.55
2017-08-30T17:37:15.206Z,100069.60
2017-08-30T17:42:18.635Z,100047.55
2017-08-30T17:47:20.705Z,100069.09
2017-08-30T17:52:22.703Z,100074.29
2017-08-30T17:57:24.856Z,100077.64
2017-08-30T18:02:26.877Z,100076.65
2017-08-30T18:07:28.875Z,100072.58
2017-08-30T18:12:30.914Z,100069.39
2017-08-30T18:17:33.266Z,100062.34
2017-08-30T18:22:37.795Z,100063.27
2017-08-30T18:27:42.344Z,100076.66
2017-08-30T18:32:44.890Z,100070.36
2017-08-30T18:37:52.337Z,100082.00
2017-08-30T18:42:58.227Z,100107.64
2017-08-30T18:48:01.313Z,100128.87
2017-08-30T18:53:03.447Z,100141.09
2017-08-30T18:58:06.027Z,100156.66
2017-08-30T19:03:08.085Z,100176.42
2017-08-30T19:08:10.386Z,100180.02
2017-08-30T19:13:12.958Z,100179.49
2017-08-30T19:18:15.246Z,100176.30
2017-08-30T19:23:17.749Z,100167.50
2017-08-30T19:28:19.905Z,100166.83
2017-08-30T19:33:22.061Z,100159.83
2017-08-30T19:38:24.301Z,100163.27
2017-08-30T19:43:26.659Z,100141.47
2017-08-30T19:48:33.833Z,100133.69
2017-08-30T19:53:36.181Z,100133.79
2017-08-30T19:58:38.595Z,100144.53
2017-08-30T20:03:44.249Z,100150.98
2017-08-30T20:08:46.491Z,100151.41
2017-08-30T20:13:48.773Z,100146.70
2017-08-30T20:18:51.061Z,100146.38
2017-08-30T20:23:54.643Z,100139.34
2017-08-30T20:28:56.635Z,100130.81
2017-08-30T20:33:58.590Z,100123.87
2017-08-30T20:39:00.572Z,100123.64
2017-08-30T20:44:02.621Z,100133.71
2017-08-30T20:49:04.656Z,100136.55
2017-08-30T20:54:06.619Z,100144.70
2017-08-30T20:59:08.543Z,100159.48
2017-08-30T21:04:10.528Z,100155.52
2017-08-30T21:09:12.528Z,100168.47
2017-08-30T21:14:14.522Z,100166.86
2017-08-30T21:19:16.505Z,100175.49
2017-08-30T21:24:18.585Z,100187.70
2017-08-30T21:29:20.720Z,100199.61
2017-08-30T21:34:23.291Z,100200.63
2017-08-30T21:39:25.312Z,100200.09
2017-08-30T21:44:27.271Z,100217.30
2017-08-30T21:49:29.215Z,100213.16
2017-08-30T21:54:33.120Z,100195.27
2017-08-30T21:59:36.692Z,100186.64
2017-08-30T22:04:38.833Z,100171.12
2017-08-30T22:09:40.793Z,100188.26
2017-08-30T22:14:42.792Z,100186.83
2017-08-30T22:19:44.795Z,100180.84
2017-08-30T22:24:46.843Z,100183.48
2017-08-30T22:29:48.951Z,100189.27
2017-08-30T22:34:51.054Z,100186.59
2017-08-30T22:39:53.165Z,100174.67
2017-08-30T22:44:55.147Z,100183.06
2017-08-30T22:49:57.128Z,100188.96
2017-08-30T22:54:59.112Z,100190.39
2017-08-30T23:00:01.087Z,100184.43
2017-08-30T23:05:03.852Z,100195.30
2017-08-30T23:10:06.493Z,100193.22
2017-08-30T23:15:08.453Z,100179.67
2017-08-30T23:20:10.931Z,100186.20
2017-08-30T23:25:12.971Z,100186.50
2017-08-30T23:30:14.950Z,100196.06
2017-08-30T23:35:16.943Z,100123.06
2017-08-30T23:40:19.067Z,100178.57
2017-08-30T23:45:21.333Z,100170.00
2017-08-30T23:50:23.420Z,100166.16
2017-08-30T23:55:25.390Z,100163.88
